<?xml version="1.0" encoding="UTF-8" standalone="no" ?>
<gpx xmlns="http://www.topografix.com/GPX/1/1" xmlns:xsi="http://www.w3.org/2001/XMLSchema-instance" xsi:schemaLocation="http://www.topografix.com/GPX/1/1 http://www.topografix.com/GPX/1/1/gpx.xsd" version="1.1" creator="VisuGPX - https://www.visugpx.com">
  <metadata>
    <name>AV Pujaudran pont des mascarades 9km</name>
    <desc><![CDATA[Total: 9.1km]]></desc>
  </metadata>
  <trk>
    <name><![CDATA[AV Pujaudran pont des mascarades]]></name>
    <desc><![CDATA[Total: 9.1km]]></desc>
    <trkseg>
      <trkpt lat="43.59042" lon="1.15322">
        <ele>292.16</ele>
        <time>2019-10-27T10:25:15Z</time>
      </trkpt>
      <trkpt lat="43.59005" lon="1.15291">
        <ele>293.98678052038</ele>
        <time>2019-10-27T10:25:50Z</time>
      </trkpt>
      <trkpt lat="43.5898" lon="1.15281">
        <ele>294.16</ele>
        <time>2019-10-27T10:26:11Z</time>
      </trkpt>
      <trkpt lat="43.58965" lon="1.15408">
        <ele>288.93</ele>
        <time>2019-10-27T10:27:25Z</time>
      </trkpt>
      <trkpt lat="43.58951" lon="1.15518">
        <ele>287.99813303399</ele>
        <time>2019-10-27T10:28:30Z</time>
      </trkpt>
      <trkpt lat="43.58937" lon="1.15627">
        <ele>289.16</ele>
        <time>2019-10-27T10:29:35Z</time>
      </trkpt>
      <trkpt lat="43.58927" lon="1.15713">
        <ele>288.33</ele>
        <time>2019-10-27T10:30:25Z</time>
      </trkpt>
      <trkpt lat="43.58915" lon="1.15848">
        <ele>283.81856064652</ele>
        <time>2019-10-27T10:31:44Z</time>
      </trkpt>
      <trkpt lat="43.58911" lon="1.15895">
        <ele>281.73</ele>
        <time>2019-10-27T10:32:12Z</time>
      </trkpt>
      <trkpt lat="43.58913" lon="1.16071">
        <ele>273.67</ele>
        <time>2019-10-27T10:33:54Z</time>
      </trkpt>
      <trkpt lat="43.58913" lon="1.16077">
        <ele>273.39</ele>
        <time>2019-10-27T10:33:58Z</time>
      </trkpt>
      <trkpt lat="43.58921" lon="1.16293">
        <ele>264.42</ele>
        <time>2019-10-27T10:36:04Z</time>
      </trkpt>
      <trkpt lat="43.58925" lon="1.16396">
        <ele>260.16</ele>
        <time>2019-10-27T10:37:04Z</time>
      </trkpt>
      <trkpt lat="43.58934" lon="1.16473">
        <ele>255.40253350049</ele>
        <time>2019-10-27T10:37:49Z</time>
      </trkpt>
      <trkpt lat="43.58931" lon="1.16492">
        <ele>254.57</ele>
        <time>2019-10-27T10:38:00Z</time>
      </trkpt>
      <trkpt lat="43.58876" lon="1.16517">
        <ele>254.11325062198</ele>
        <time>2019-10-27T10:38:47Z</time>
      </trkpt>
      <trkpt lat="43.58852" lon="1.16487">
        <ele>255.78</ele>
        <time>2019-10-27T10:39:13Z</time>
      </trkpt>
      <trkpt lat="43.58838" lon="1.16466">
        <ele>257.04</ele>
        <time>2019-10-27T10:39:29Z</time>
      </trkpt>
      <trkpt lat="43.58748" lon="1.16487">
        <ele>246.11933601068</ele>
        <time>2019-10-27T10:40:43Z</time>
      </trkpt>
      <trkpt lat="43.58731" lon="1.16491">
        <ele>243.32125913855</ele>
        <time>2019-10-27T10:40:57Z</time>
      </trkpt>
      <trkpt lat="43.58719" lon="1.16502">
        <ele>241.48</ele>
        <time>2019-10-27T10:41:09Z</time>
      </trkpt>
      <trkpt lat="43.58735" lon="1.16646">
        <ele>240.46052207382</ele>
        <time>2019-10-27T10:42:34Z</time>
      </trkpt>
      <trkpt lat="43.58736" lon="1.16655">
        <ele>240.52</ele>
        <time>2019-10-27T10:42:39Z</time>
      </trkpt>
      <trkpt lat="43.58748" lon="1.16794">
        <ele>237.38</ele>
        <time>2019-10-27T10:44:00Z</time>
      </trkpt>
      <trkpt lat="43.5877" lon="1.16977">
        <ele>232.34404630073</ele>
        <time>2019-10-27T10:45:48Z</time>
      </trkpt>
      <trkpt lat="43.5877" lon="1.16984">
        <ele>232.16351317117</ele>
        <time>2019-10-27T10:45:52Z</time>
      </trkpt>
      <trkpt lat="43.58734" lon="1.17037">
        <ele>230.31</ele>
        <time>2019-10-27T10:46:34Z</time>
      </trkpt>
      <trkpt lat="43.58734" lon="1.17118">
        <ele>228.11</ele>
        <time>2019-10-27T10:47:22Z</time>
      </trkpt>
      <trkpt lat="43.58736" lon="1.17219">
        <ele>226.27918406616</ele>
        <time>2019-10-27T10:48:21Z</time>
      </trkpt>
      <trkpt lat="43.58733" lon="1.17247">
        <ele>226.11024293675</ele>
        <time>2019-10-27T10:48:37Z</time>
      </trkpt>
      <trkpt lat="43.58719" lon="1.17273">
        <ele>226.17</ele>
        <time>2019-10-27T10:48:56Z</time>
      </trkpt>
      <trkpt lat="43.5871" lon="1.17259">
        <ele>226.33847670867</ele>
        <time>2019-10-27T10:49:07Z</time>
      </trkpt>
      <trkpt lat="43.58712" lon="1.17231">
        <ele>226.71539455468</ele>
        <time>2019-10-27T10:49:23Z</time>
      </trkpt>
      <trkpt lat="43.58707" lon="1.17192">
        <ele>227.39</ele>
        <time>2019-10-27T10:49:46Z</time>
      </trkpt>
      <trkpt lat="43.58704" lon="1.17044">
        <ele>230.18</ele>
        <time>2019-10-27T10:51:12Z</time>
      </trkpt>
      <trkpt lat="43.58704" lon="1.17042">
        <ele>230.23940162249</ele>
        <time>2019-10-27T10:51:14Z</time>
      </trkpt>
      <trkpt lat="43.587" lon="1.16995">
        <ele>231.72591957571</ele>
        <time>2019-10-27T10:51:41Z</time>
      </trkpt>
      <trkpt lat="43.58706" lon="1.16966">
        <ele>232.84211831153</ele>
        <time>2019-10-27T10:51:59Z</time>
      </trkpt>
      <trkpt lat="43.58707" lon="1.16949">
        <ele>233.5</ele>
        <time>2019-10-27T10:52:08Z</time>
      </trkpt>
      <trkpt lat="43.58716" lon="1.16934">
        <ele>234.293191715</ele>
        <time>2019-10-27T10:52:20Z</time>
      </trkpt>
      <trkpt lat="43.58727" lon="1.16913">
        <ele>235.2</ele>
        <time>2019-10-27T10:52:35Z</time>
      </trkpt>
      <trkpt lat="43.58703" lon="1.16819">
        <ele>235.91650911967</ele>
        <time>2019-10-27T10:53:33Z</time>
      </trkpt>
      <trkpt lat="43.58703" lon="1.16803">
        <ele>235.85716198432</ele>
        <time>2019-10-27T10:53:42Z</time>
      </trkpt>
      <trkpt lat="43.58705" lon="1.16779">
        <ele>235.8227057262</ele>
        <time>2019-10-27T10:53:56Z</time>
      </trkpt>
      <trkpt lat="43.58692" lon="1.16745">
        <ele>236.1</ele>
        <time>2019-10-27T10:54:19Z</time>
      </trkpt>
      <trkpt lat="43.58679" lon="1.16706">
        <ele>237.05720806203</ele>
        <time>2019-10-27T10:54:44Z</time>
      </trkpt>
      <trkpt lat="43.58671" lon="1.16658">
        <ele>238.26</ele>
        <time>2019-10-27T10:55:12Z</time>
      </trkpt>
      <trkpt lat="43.58683" lon="1.16616">
        <ele>238.78696134904</ele>
        <time>2019-10-27T10:55:38Z</time>
      </trkpt>
      <trkpt lat="43.5867" lon="1.16602">
        <ele>238.8691430615</ele>
        <time>2019-10-27T10:55:51Z</time>
      </trkpt>
      <trkpt lat="43.58671" lon="1.16583">
        <ele>238.89774149541</ele>
        <time>2019-10-27T10:56:02Z</time>
      </trkpt>
      <trkpt lat="43.5868" lon="1.16561">
        <ele>238.93069212908</ele>
        <time>2019-10-27T10:56:17Z</time>
      </trkpt>
      <trkpt lat="43.58665" lon="1.1655">
        <ele>239.01</ele>
        <time>2019-10-27T10:56:31Z</time>
      </trkpt>
      <trkpt lat="43.58657" lon="1.1654">
        <ele>239.11149733065</ele>
        <time>2019-10-27T10:56:40Z</time>
      </trkpt>
      <trkpt lat="43.58651" lon="1.16522">
        <ele>239.29607049681</ele>
        <time>2019-10-27T10:56:51Z</time>
      </trkpt>
      <trkpt lat="43.58659" lon="1.165">
        <ele>239.61480650388</ele>
        <time>2019-10-27T10:57:06Z</time>
      </trkpt>
      <trkpt lat="43.58671" lon="1.1646">
        <ele>240.28431273091</ele>
        <time>2019-10-27T10:57:30Z</time>
      </trkpt>
      <trkpt lat="43.5867" lon="1.16444">
        <ele>240.56</ele>
        <time>2019-10-27T10:57:40Z</time>
      </trkpt>
      <trkpt lat="43.58658" lon="1.1643">
        <ele>240.93981765571</ele>
        <time>2019-10-27T10:57:53Z</time>
      </trkpt>
      <trkpt lat="43.58647" lon="1.1642">
        <ele>241.24019835588</ele>
        <time>2019-10-27T10:58:03Z</time>
      </trkpt>
      <trkpt lat="43.58654" lon="1.16393">
        <ele>241.69410758002</ele>
        <time>2019-10-27T10:58:19Z</time>
      </trkpt>
      <trkpt lat="43.58646" lon="1.1638">
        <ele>241.94313131089</ele>
        <time>2019-10-27T10:58:29Z</time>
      </trkpt>
      <trkpt lat="43.58639" lon="1.16363">
        <ele>242.19</ele>
        <time>2019-10-27T10:58:41Z</time>
      </trkpt>
      <trkpt lat="43.58638" lon="1.16334">
        <ele>242.49503421845</ele>
        <time>2019-10-27T10:58:57Z</time>
      </trkpt>
      <trkpt lat="43.58629" lon="1.16314">
        <ele>242.73147973857</ele>
        <time>2019-10-27T10:59:12Z</time>
      </trkpt>
      <trkpt lat="43.58623" lon="1.16269">
        <ele>243.25</ele>
        <time>2019-10-27T10:59:38Z</time>
      </trkpt>
      <trkpt lat="43.5861" lon="1.16238">
        <ele>243.84521702857</ele>
        <time>2019-10-27T10:59:59Z</time>
      </trkpt>
      <trkpt lat="43.58614" lon="1.16211">
        <ele>244.36860443155</ele>
        <time>2019-10-27T11:00:15Z</time>
      </trkpt>
      <trkpt lat="43.58612" lon="1.16187">
        <ele>244.82791699321</ele>
        <time>2019-10-27T11:00:29Z</time>
      </trkpt>
      <trkpt lat="43.58604" lon="1.16167">
        <ele>245.24</ele>
        <time>2019-10-27T11:00:42Z</time>
      </trkpt>
      <trkpt lat="43.58589" lon="1.16132">
        <ele>245.89973325737</ele>
        <time>2019-10-27T11:01:06Z</time>
      </trkpt>
      <trkpt lat="43.58578" lon="1.16105">
        <ele>246.4730323268</ele>
        <time>2019-10-27T11:01:24Z</time>
      </trkpt>
      <trkpt lat="43.58569" lon="1.1607">
        <ele>247.45</ele>
        <time>2019-10-27T11:01:46Z</time>
      </trkpt>
      <trkpt lat="43.58568" lon="1.1604">
        <ele>248.57047134492</ele>
        <time>2019-10-27T11:02:03Z</time>
      </trkpt>
      <trkpt lat="43.58574" lon="1.16015">
        <ele>249.66</ele>
        <time>2019-10-27T11:02:18Z</time>
      </trkpt>
      <trkpt lat="43.58495" lon="1.1603">
        <ele>252.95</ele>
        <time>2019-10-27T11:03:22Z</time>
      </trkpt>
      <trkpt lat="43.58503" lon="1.1612">
        <ele>253.13365913979</ele>
        <time>2019-10-27T11:04:15Z</time>
      </trkpt>
      <trkpt lat="43.58489" lon="1.16148">
        <ele>253.81596234021</ele>
        <time>2019-10-27T11:04:34Z</time>
      </trkpt>
      <trkpt lat="43.58445" lon="1.16141">
        <ele>257.98</ele>
        <time>2019-10-27T11:05:10Z</time>
      </trkpt>
      <trkpt lat="43.58402" lon="1.16127">
        <ele>265.47</ele>
        <time>2019-10-27T11:05:46Z</time>
      </trkpt>
      <trkpt lat="43.58404" lon="1.16297">
        <ele>266.1</ele>
        <time>2019-10-27T11:07:25Z</time>
      </trkpt>
      <trkpt lat="43.58405" lon="1.16374">
        <ele>264.99</ele>
        <time>2019-10-27T11:08:10Z</time>
      </trkpt>
      <trkpt lat="43.58409" lon="1.1652">
        <ele>261.05460211259</ele>
        <time>2019-10-27T11:09:35Z</time>
      </trkpt>
      <trkpt lat="43.58409" lon="1.16539">
        <ele>260.81</ele>
        <time>2019-10-27T11:09:46Z</time>
      </trkpt>
      <trkpt lat="43.58379" lon="1.16738">
        <ele>263.77</ele>
        <time>2019-10-27T11:11:44Z</time>
      </trkpt>
      <trkpt lat="43.58367" lon="1.16813">
        <ele>263.57</ele>
        <time>2019-10-27T11:12:29Z</time>
      </trkpt>
      <trkpt lat="43.58346" lon="1.16957">
        <ele>258.53772543936</ele>
        <time>2019-10-27T11:13:54Z</time>
      </trkpt>
      <trkpt lat="43.58329" lon="1.17066">
        <ele>253.28</ele>
        <time>2019-10-27T11:14:59Z</time>
      </trkpt>
      <trkpt lat="43.58325" lon="1.1709">
        <ele>252.4</ele>
        <time>2019-10-27T11:15:14Z</time>
      </trkpt>
      <trkpt lat="43.58264" lon="1.16912">
        <ele>272.06810568478</ele>
        <time>2019-10-27T11:17:09Z</time>
      </trkpt>
      <trkpt lat="43.58248" lon="1.16865">
        <ele>279.29</ele>
        <time>2019-10-27T11:17:40Z</time>
      </trkpt>
      <trkpt lat="43.58209" lon="1.16706">
        <ele>292.87</ele>
        <time>2019-10-27T11:19:18Z</time>
      </trkpt>
      <trkpt lat="43.58188" lon="1.16595">
        <ele>297.06</ele>
        <time>2019-10-27T11:20:25Z</time>
      </trkpt>
      <trkpt lat="43.58181" lon="1.16554">
        <ele>297.25</ele>
        <time>2019-10-27T11:20:49Z</time>
      </trkpt>
      <trkpt lat="43.58158" lon="1.16427">
        <ele>298.15</ele>
        <time>2019-10-27T11:22:05Z</time>
      </trkpt>
      <trkpt lat="43.58136" lon="1.16316">
        <ele>294.49196728028</ele>
        <time>2019-10-27T11:23:13Z</time>
      </trkpt>
      <trkpt lat="43.58106" lon="1.16294">
        <ele>291.73</ele>
        <time>2019-10-27T11:23:39Z</time>
      </trkpt>
      <trkpt lat="43.58081" lon="1.16253">
        <ele>288.1767404717</ele>
        <time>2019-10-27T11:24:10Z</time>
      </trkpt>
      <trkpt lat="43.58055" lon="1.1626">
        <ele>286.35</ele>
        <time>2019-10-27T11:24:32Z</time>
      </trkpt>
      <trkpt lat="43.58059" lon="1.16334">
        <ele>284.87</ele>
        <time>2019-10-27T11:25:15Z</time>
      </trkpt>
      <trkpt lat="43.5803" lon="1.16499">
        <ele>276.74</ele>
        <time>2019-10-27T11:26:54Z</time>
      </trkpt>
      <trkpt lat="43.58027" lon="1.16515">
        <ele>276.35</ele>
        <time>2019-10-27T11:27:04Z</time>
      </trkpt>
      <trkpt lat="43.57991" lon="1.16716">
        <ele>268.16719289399</ele>
        <time>2019-10-27T11:29:04Z</time>
      </trkpt>
      <trkpt lat="43.57974" lon="1.16811">
        <ele>262.68</ele>
        <time>2019-10-27T11:30:01Z</time>
      </trkpt>
      <trkpt lat="43.57937" lon="1.16925">
        <ele>253.81</ele>
        <time>2019-10-27T11:31:14Z</time>
      </trkpt>
      <trkpt lat="43.57924" lon="1.16966">
        <ele>249.87</ele>
        <time>2019-10-27T11:31:40Z</time>
      </trkpt>
      <trkpt lat="43.57887" lon="1.16863">
        <ele>253.08</ele>
        <time>2019-10-27T11:32:47Z</time>
      </trkpt>
      <trkpt lat="43.57889" lon="1.16688">
        <ele>263.41005608343</ele>
        <time>2019-10-27T11:34:29Z</time>
      </trkpt>
      <trkpt lat="43.5789" lon="1.16605">
        <ele>270.1</ele>
        <time>2019-10-27T11:35:17Z</time>
      </trkpt>
      <trkpt lat="43.57884" lon="1.16466">
        <ele>284.68485270361</ele>
        <time>2019-10-27T11:36:39Z</time>
      </trkpt>
      <trkpt lat="43.57884" lon="1.16459">
        <ele>285.21769446595</ele>
        <time>2019-10-27T11:36:43Z</time>
      </trkpt>
      <trkpt lat="43.57859" lon="1.16369">
        <ele>288.9</ele>
        <time>2019-10-27T11:37:39Z</time>
      </trkpt>
      <trkpt lat="43.57794" lon="1.16374">
        <ele>285.42</ele>
        <time>2019-10-27T11:38:31Z</time>
      </trkpt>
      <trkpt lat="43.57772" lon="1.16235">
        <ele>291.0128816438</ele>
        <time>2019-10-27T11:39:54Z</time>
      </trkpt>
      <trkpt lat="43.57769" lon="1.16211">
        <ele>292.04</ele>
        <time>2019-10-27T11:40:08Z</time>
      </trkpt>
      <trkpt lat="43.57766" lon="1.1606">
        <ele>291.49</ele>
        <time>2019-10-27T11:41:36Z</time>
      </trkpt>
      <trkpt lat="43.57796" lon="1.15907">
        <ele>293.36500321284</ele>
        <time>2019-10-27T11:43:08Z</time>
      </trkpt>
      <trkpt lat="43.57811" lon="1.15834">
        <ele>296.11</ele>
        <time>2019-10-27T11:43:52Z</time>
      </trkpt>
      <trkpt lat="43.57821" lon="1.15793">
        <ele>297.90135587971</ele>
        <time>2019-10-27T11:44:18Z</time>
      </trkpt>
      <trkpt lat="43.57817" lon="1.15773">
        <ele>298.62840911205</ele>
        <time>2019-10-27T11:44:30Z</time>
      </trkpt>
      <trkpt lat="43.57811" lon="1.15751">
        <ele>299.16</ele>
        <time>2019-10-27T11:44:43Z</time>
      </trkpt>
      <trkpt lat="43.57759" lon="1.15673">
        <ele>297.95</ele>
        <time>2019-10-27T11:45:45Z</time>
      </trkpt>
      <trkpt lat="43.57731" lon="1.15599">
        <ele>295.55</ele>
        <time>2019-10-27T11:46:34Z</time>
      </trkpt>
      <trkpt lat="43.57843" lon="1.15466">
        <ele>293.50015845663</ele>
        <time>2019-10-27T11:48:32Z</time>
      </trkpt>
      <trkpt lat="43.57878" lon="1.15424">
        <ele>293.09</ele>
        <time>2019-10-27T11:49:10Z</time>
      </trkpt>
      <trkpt lat="43.57908" lon="1.1539">
        <ele>292.51080332091</ele>
        <time>2019-10-27T11:49:40Z</time>
      </trkpt>
      <trkpt lat="43.5795" lon="1.15314">
        <ele>291.84</ele>
        <time>2019-10-27T11:50:36Z</time>
      </trkpt>
      <trkpt lat="43.58014" lon="1.1523">
        <ele>293.29</ele>
        <time>2019-10-27T11:51:47Z</time>
      </trkpt>
      <trkpt lat="43.58033" lon="1.15206">
        <ele>294.02</ele>
        <time>2019-10-27T11:52:07Z</time>
      </trkpt>
      <trkpt lat="43.58122" lon="1.15137">
        <ele>299.46</ele>
        <time>2019-10-27T11:53:29Z</time>
      </trkpt>
      <trkpt lat="43.58214" lon="1.15084">
        <ele>302.41</ele>
        <time>2019-10-27T11:54:49Z</time>
      </trkpt>
      <trkpt lat="43.5824" lon="1.15073">
        <ele>301.89</ele>
        <time>2019-10-27T11:55:11Z</time>
      </trkpt>
      <trkpt lat="43.58382" lon="1.15099">
        <ele>295.61</ele>
        <time>2019-10-27T11:57:05Z</time>
      </trkpt>
      <trkpt lat="43.58439" lon="1.15191">
        <ele>286.51</ele>
        <time>2019-10-27T11:58:16Z</time>
      </trkpt>
      <trkpt lat="43.58492" lon="1.15275">
        <ele>278.75744490463</ele>
        <time>2019-10-27T11:59:21Z</time>
      </trkpt>
      <trkpt lat="43.58504" lon="1.15294">
        <ele>277.37327137699</ele>
        <time>2019-10-27T11:59:36Z</time>
      </trkpt>
      <trkpt lat="43.58532" lon="1.15305">
        <ele>275.48</ele>
        <time>2019-10-27T11:59:59Z</time>
      </trkpt>
      <trkpt lat="43.58531" lon="1.15258">
        <ele>273.89892194642</ele>
        <time>2019-10-27T12:00:27Z</time>
      </trkpt>
      <trkpt lat="43.58515" lon="1.15181">
        <ele>273.86</ele>
        <time>2019-10-27T12:01:13Z</time>
      </trkpt>
      <trkpt lat="43.5856" lon="1.15161">
        <ele>275.73</ele>
        <time>2019-10-27T12:01:51Z</time>
      </trkpt>
      <trkpt lat="43.58582" lon="1.15249">
        <ele>272.06998361089</ele>
        <time>2019-10-27T12:02:45Z</time>
      </trkpt>
      <trkpt lat="43.58599" lon="1.15341">
        <ele>266.7</ele>
        <time>2019-10-27T12:03:41Z</time>
      </trkpt>
      <trkpt lat="43.58632" lon="1.15369">
        <ele>266.24</ele>
        <time>2019-10-27T12:04:11Z</time>
      </trkpt>
      <trkpt lat="43.58679" lon="1.15366">
        <ele>267.02</ele>
        <time>2019-10-27T12:04:49Z</time>
      </trkpt>
      <trkpt lat="43.58676" lon="1.15253">
        <ele>276.82230468647</ele>
        <time>2019-10-27T12:05:55Z</time>
      </trkpt>
      <trkpt lat="43.58694" lon="1.15201">
        <ele>281.14</ele>
        <time>2019-10-27T12:06:29Z</time>
      </trkpt>
      <trkpt lat="43.58739" lon="1.15126">
        <ele>281.4</ele>
        <time>2019-10-27T12:07:25Z</time>
      </trkpt>
      <trkpt lat="43.58813" lon="1.14987">
        <ele>283.11426473829</ele>
        <time>2019-10-27T12:09:05Z</time>
      </trkpt>
      <trkpt lat="43.58817" lon="1.14979">
        <ele>283.29</ele>
        <time>2019-10-27T12:09:11Z</time>
      </trkpt>
      <trkpt lat="43.58885" lon="1.15016">
        <ele>285.28079397547</ele>
        <time>2019-10-27T12:10:10Z</time>
      </trkpt>
      <trkpt lat="43.58932" lon="1.15042">
        <ele>288.45</ele>
        <time>2019-10-27T12:10:51Z</time>
      </trkpt>
      <trkpt lat="43.58962" lon="1.15054">
        <ele>291.71761703676</ele>
        <time>2019-10-27T12:11:16Z</time>
      </trkpt>
      <trkpt lat="43.58984" lon="1.15065">
        <ele>294.3706341818</ele>
        <time>2019-10-27T12:11:35Z</time>
      </trkpt>
      <trkpt lat="43.58997" lon="1.15066">
        <ele>295.74008176438</ele>
        <time>2019-10-27T12:11:45Z</time>
      </trkpt>
      <trkpt lat="43.59025" lon="1.15081">
        <ele>298.49</ele>
        <time>2019-10-27T12:12:09Z</time>
      </trkpt>
      <trkpt lat="43.5904" lon="1.15096">
        <ele>299.56</ele>
        <time>2019-10-27T12:12:24Z</time>
      </trkpt>
      <trkpt lat="43.58999" lon="1.1524">
        <ele>296.96643011622</ele>
        <time>2019-10-27T12:13:54Z</time>
      </trkpt>
      <trkpt lat="43.5899" lon="1.15264">
        <ele>296.08</ele>
        <time>2019-10-27T12:14:10Z</time>
      </trkpt>
      <trkpt lat="43.59035" lon="1.15285">
        <ele>293.9</ele>
        <time>2019-10-27T12:14:48Z</time>
      </trkpt>
    </trkseg>
  </trk>
</gpx>